Time;durP1;ratioP1;P1;durP2;ratioP2;P2;SDS_P1;SDS_P2;PMS_P1;PMS_P2;Temp;Humidity;BMP_temperature;BMP_pressure;BME280_temperature;BME280_humidity;BME280_pressure;Samples;Min_cycle;Max_cycle;Signal;HPM_P1;HPM_P2
2022/04/26 03:36:20;;;;;;;14.55;12.82;;;;;;;10.93;82.97;99435.81;1088229;54;20031;-83
2022/04/26 03:37:23;;;;;;;14.45;12.95;;;;;;;11.00;82.84;99436.81;1088265;54;20030;-82
2022/04/26 03:38:27;;;;;;;13.77;11.75;;;;;;;11.06;82.50;99438.84;1088169;54;20686;-81
2022/04/26 03:39:29;;;;;;;13.65;11.82;;;;;;;11.11;82.45;99437.53;1088231;54;20019;-82
2022/04/26 03:40:33;;;;;;;13.50;11.63;;;;;;;11.14;82.13;99438.03;1088226;54;20037;-82
2022/04/26 03:41:34;;;;;;;12.07;10.60;;;;;;;11.17;82.30;99439.53;1088132;54;20034;-81
2022/04/26 03:42:39;;;;;;;12.20;10.90;;;;;;;11.15;82.17;99437.03;1088154;54;20030;-81
2022/04/26 03:43:40;;;;;;;13.38;11.98;;;;;;;11.11;82.28;99433.00;1091879;46;20045;-81
2022/04/26 03:44:45;;;;;;;13.68;12.02;;;;;;;11.06;82.60;99438.84;1088142;54;20018;-82
2022/04/26 03:45:49;;;;;;;15.40;11.63;;;;;;;11.08;82.45;99444.03;1091359;39;20776;-81
2022/04/26 03:46:53;;;;;;;12.68;10.60;;;;;;;11.12;82.22;99436.53;1088154;54;20102;-82
2022/04/26 03:47:55;;;;;;;12.35;10.02;;;;;;;11.14;82.25;99442.56;1088219;54;20063;-82
2022/04/26 03:48:59;;;;;;;14.05;12.13;;;;;;;11.12;82.46;99444.56;1088157;54;20030;-82
2022/04/26 03:50:00;;;;;;;13.27;11.50;;;;;;;11.14;82.18;99443.38;1088260;54;20042;-80
2022/04/26 03:51:04;;;;;;;12.75;11.07;;;;;;;11.18;81.87;99438.53;1088163;54;20026;-82
2022/04/26 03:52:07;;;;;;;12.52;10.50;;;;;;;11.20;81.79;99433.88;1087881;54;20023;-82
2022/04/26 03:53:11;;;;;;;12.50;10.38;;;;;;;11.22;81.82;99438.03;1088216;54;20054;-81
2022/04/26 03:54:13;;;;;;;12.85;11.40;;;;;;;11.20;81.93;99439.22;1088225;54;20030;-82
2022/04/26 03:55:17;;;;;;;15.82;12.45;;;;;;;11.17;82.01;99442.22;1088188;54;20030;-82
2022/04/26 03:56:19;;;;;;;15.15;12.07;;;;;;;11.15;82.27;99444.19;1088198;54;20037;-82
2022/04/26 03:57:23;;;;;;;14.52;12.95;;;;;;;11.16;81.97;99440.53;1088201;54;20019;-81
2022/04/26 03:58:26;;;;;;;12.85;11.50;;;;;;;11.16;81.88;99445.88;1088021;54;20031;-80
2022/04/26 03:59:30;;;;;;;14.85;12.88;;;;;;;11.15;82.12;99441.53;1088174;54;20111;-82
2022/04/26 04:00:32;;;;;;;14.68;12.95;;;;;;;11.16;82.08;99443.19;1088164;54;20030;-80
2022/04/26 04:01:39;;;;;;;13.02;11.35;;;;;;;11.20;82.03;99441.88;1087932;54;20800;-81
2022/04/26 04:02:40;;;;;;;13.30;11.90;;;;;;;11.16;82.15;99443.19;1087730;54;20160;-81
2022/04/26 04:03:44;;;;;;;14.23;12.27;;;;;;;11.01;82.80;99451.03;1089690;46;20108;-83
2022/04/26 04:04:46;;;;;;;15.98;13.30;;;;;;;10.90;83.56;99452.16;1088144;54;20037;-82
2022/04/26 04:05:50;;;;;;;15.25;13.35;;;;;;;10.79;84.04;99449.78;1088197;54;20042;-83
2022/04/26 04:06:54;;;;;;;15.15;13.05;;;;;;;10.79;84.21;99449.78;1088151;54;20030;-82
2022/04/26 04:07:56;;;;;;;15.55;13.45;;;;;;;10.72;84.36;99450.41;1089700;46;20098;-84
2022/04/26 04:09:00;;;;;;;16.08;13.85;;;;;;;10.70;84.45;99440.91;1088086;54;20038;-81
2022/04/26 04:10:01;;;;;;;15.60;13.82;;;;;;;10.65;84.69;99444.03;1088158;54;20030;-82
2022/04/26 04:11:05;;;;;;;15.70;13.13;;;;;;;10.61;84.85;99453.38;1088033;54;20041;-82
2022/04/26 04:12:09;;;;;;;16.05;14.35;;;;;;;10.62;85.10;99449.69;1088028;54;20049;-82
2022/04/26 04:13:13;;;;;;;16.05;14.23;;;;;;;10.61;85.07;99448.88;1089308;46;20083;-82
2022/04/26 04:14:14;;;;;;;16.52;14.68;;;;;;;10.61;85.06;99458.72;1088873;46;20038;-82
2022/04/26 04:15:18;;;;;;;17.50;15.70;;;;;;;10.56;85.41;99453.03;1088099;54;20030;-84
2022/04/26 04:16:20;;;;;;;18.23;16.33;;;;;;;10.56;85.45;99450.34;1088145;54;20022;-81
2022/04/26 04:17:27;;;;;;;16.38;14.65;;;;;;;10.69;85.62;99461.41;1093377;39;20769;-84
2022/04/26 04:19:45;;;;;;;16.25;14.55;;;;;;;10.64;85.46;99455.72;1087907;54;20026;-84
2022/04/26 04:20:49;;;;;;;16.15;14.27;;;;;;;10.69;85.54;99445.38;1088080;54;20094;-82
2022/04/26 04:21:51;;;;;;;17.25;14.80;;;;;;;10.71;85.35;99448.75;1089419;46;20776;-83
2022/04/26 04:22:55;;;;;;;15.82;14.13;;;;;;;10.69;85.52;99449.91;1091338;39;20654;-82
2022/04/26 04:23:57;;;;;;;16.13;14.43;;;;;;;10.73;84.90;99454.78;1088053;54;20106;-81
2022/04/26 04:25:01;;;;;;;16.35;13.95;;;;;;;10.80;84.96;99449.63;1088076;54;20035;-82
2022/04/26 04:26:03;;;;;;;14.02;12.52;;;;;;;10.89;84.55;99451.34;1088755;46;20710;-82
2022/04/26 04:27:09;;;;;;;13.05;11.65;;;;;;;10.97;84.38;99453.19;1088106;54;20042;-82
2022/04/26 04:28:10;;;;;;;12.23;10.93;;;;;;;11.02;84.04;99447.34;1088081;54;20040;-82
2022/04/26 04:29:15;;;;;;;12.57;10.70;;;;;;;11.05;83.79;99445.19;1088005;54;20030;-82
2022/04/26 04:30:17;;;;;;;12.20;10.48;;;;;;;11.10;83.74;99451.88;1088104;54;20019;-83
2022/04/26 04:31:21;;;;;;;11.68;10.10;;;;;;;11.11;83.39;99454.41;1088016;54;20031;-83
2022/04/26 04:32:25;;;;;;;13.38;9.90;;;;;;;11.17;83.34;99455.59;1088061;54;20034;-80
2022/04/26 04:33:30;;;;;;;12.07;9.27;;;;;;;11.21;83.24;99460.44;1088047;54;20030;-82
2022/04/26 04:34:34;;;;;;;10.05;8.65;;;;;;;11.25;83.04;99460.94;1087945;54;20773;-80
2022/04/26 04:35:35;;;;;;;10.05;8.88;;;;;;;11.29;82.65;99467.66;1087636;54;21076;-81
2022/04/26 04:36:40;;;;;;;9.65;8.48;;;;;;;11.31;82.49;99454.97;1087998;54;20041;-81
2022/04/26 04:37:44;;;;;;;12.82;10.57;;;;;;;11.07;83.41;99461.91;1088992;39;20685;-83
2022/04/26 04:38:45;;;;;;;12.50;9.98;;;;;;;11.03;83.42;99463.25;1088012;54;20039;-82
2022/04/26 04:39:49;;;;;;;11.80;10.10;;;;;;;10.99;83.34;99461.06;1088064;54;20070;-83
2022/04/26 04:40:51;;;;;;;12.98;11.40;;;;;;;10.94;83.55;99469.56;1087992;54;20034;-82
2022/04/26 04:41:55;;;;;;;12.20;10.23;;;;;;;10.92;83.44;99474.22;1087815;54;20038;-82
2022/04/26 04:42:57;;;;;;;14.40;11.50;;;;;;;10.98;83.47;99470.91;1087807;54;20019;-82
2022/04/26 04:44:01;;;;;;;11.95;10.65;;;;;;;10.97;83.59;99477.25;1087834;54;20054;-84
2022/04/26 04:45:02;;;;;;;14.10;11.82;;;;;;;10.89;84.20;99477.22;1090140;39;20539;-81
2022/04/26 04:46:06;;;;;;;13.45;12.02;;;;;;;10.82;84.03;99485.03;1088079;54;20034;-82
2022/04/26 04:47:08;;;;;;;14.80;13.18;;;;;;;10.79;84.45;99479.19;1088049;54;20034;-83
2022/04/26 04:48:14;;;;;;;18.45;16.08;;;;;;;10.69;85.00;99479.31;1088969;39;20566;-81
2022/04/26 04:49:19;;;;;;;16.90;15.10;;;;;;;10.66;85.41;99477.81;1088020;54;20039;-81
2022/04/26 04:50:20;;;;;;;17.00;15.20;;;;;;;10.60;85.62;99489.13;1088070;54;20042;-85
2022/04/26 04:51:24;;;;;;;18.92;15.95;;;;;;;10.66;85.55;99487.63;1092814;39;20247;-81
2022/04/26 04:52:28;;;;;;;17.58;15.77;;;;;;;10.66;85.52;99482.28;1087630;54;20035;-81
2022/04/26 04:53:30;;;;;;;19.23;16.80;;;;;;;10.64;85.84;99485.13;1088015;54;20041;-79
2022/04/26 04:54:35;;;;;;;16.58;14.73;;;;;;;10.64;85.53;99485.13;1088033;54;20107;-83
2022/04/26 04:55:39;;;;;;;18.33;15.98;;;;;;;10.54;86.08;99485.22;1088060;54;20037;-81
2022/04/26 04:56:43;;;;;;;16.67;14.88;;;;;;;10.55;86.30;99486.09;1088055;54;20058;-81
2022/04/26 04:57:45;;;;;;;17.42;15.07;;;;;;;10.47;86.69;99486.03;1088020;54;20058;-84
2022/04/26 04:58:49;;;;;;;18.02;15.05;;;;;;;10.47;86.77;99496.72;1087928;54;20038;-81
2022/04/26 04:59:51;;;;;;;17.27;15.48;;;;;;;10.49;86.88;99494.72;1091594;39;20663;-82
2022/04/26 05:00:55;;;;;;;18.10;15.73;;;;;;;10.45;86.53;99492.38;1093004;39;20604;-82
2022/04/26 05:01:57;;;;;;;18.73;16.27;;;;;;;10.40;87.12;99496.53;1088031;54;20037;-83
2022/04/26 05:03:01;;;;;;;17.08;15.20;;;;;;;10.43;87.01;99493.53;1088120;54;20102;-81
2022/04/26 05:04:08;;;;;;;17.33;15.45;;;;;;;10.45;87.19;99500.41;1088376;54;20041;-84
2022/04/26 05:05:09;;;;;;;17.38;15.38;;;;;;;10.41;87.49;99501.69;1088448;54;20018;-82
2022/04/26 05:06:15;;;;;;;18.25;15.98;;;;;;;10.39;87.49;99497.50;1088405;54;20037;-81
2022/04/26 05:07:16;;;;;;;18.33;15.88;;;;;;;10.39;87.90;99495.66;1088431;54;20030;-82
2022/04/26 05:08:20;;;;;;;19.00;16.98;;;;;;;10.39;87.93;99498.34;1087987;54;20064;-83
2022/04/26 05:09:22;;;;;;;20.77;17.63;;;;;;;10.39;88.23;99494.84;1088102;54;20015;-81
2022/04/26 05:10:27;;;;;;;21.63;18.63;;;;;;;10.41;88.26;99498.19;1088395;54;20014;-82
2022/04/26 05:11:28;;;;;;;19.70;17.60;;;;;;;10.40;88.00;99494.66;1088372;54;20037;-81
2022/04/26 05:12:32;;;;;;;21.30;18.52;;;;;;;10.36;88.61;99501.31;1088406;54;20023;-83
2022/04/26 05:13:34;;;;;;;21.27;18.98;;;;;;;10.37;88.74;99502.13;1088389;54;20047;-81
2022/04/26 05:14:38;;;;;;;23.63;20.92;;;;;;;10.29;89.23;99511.78;1088434;54;20031;-80
2022/04/26 05:15:42;;;;;;;23.40;20.08;;;;;;;10.21;90.05;99510.88;1088007;54;20023;-80
2022/04/26 05:16:46;;;;;;;21.02;18.20;;;;;;;10.24;89.87;99503.41;1087939;54;20042;-83
2022/04/26 05:17:48;;;;;;;22.00;19.00;;;;;;;10.25;89.73;99512.25;1087995;54;20034;-83
2022/04/26 05:18:52;;;;;;;21.35;19.05;;;;;;;10.26;89.71;99504.06;1089197;46;20037;-84
2022/04/26 05:19:56;;;;;;;21.90;19.00;;;;;;;10.32;89.43;99507.13;1088017;54;20038;-81
2022/04/26 05:21:00;;;;;;;19.33;17.33;;;;;;;10.40;88.94;99505.34;1087991;54;20034;-80
2022/04/26 05:22:06;;;;;;;18.45;16.15;;;;;;;10.49;88.59;99503.59;1087994;54;20034;-83
2022/04/26 05:25:45;;;;;;;17.77;15.70;;;;;;;10.61;88.01;99502.34;1088072;54;20038;-86
2022/04/26 05:26:49;;;;;;;16.88;14.65;;;;;;;10.72;87.58;99498.53;1088463;54;20026;-83
2022/04/26 05:27:51;;;;;;;19.55;16.92;;;;;;;10.67;87.54;99494.66;1088446;54;20694;-85
2022/04/26 05:28:55;;;;;;;17.33;14.77;;;;;;;10.74;87.18;99490.34;1091428;39;20615;-82
2022/04/26 05:29:57;;;;;;;17.27;15.00;;;;;;;10.78;87.37;99497.06;1088427;54;20030;-84
2022/04/26 05:31:01;;;;;;;16.17;14.48;;;;;;;10.85;87.17;99492.75;1089409;39;20669;-83
2022/04/26 05:32:04;;;;;;;15.40;13.65;;;;;;;10.89;86.73;99498.63;1088465;54;20042;-82
2022/04/26 05:33:08;;;;;;;14.60;12.98;;;;;;;10.92;86.96;99500.97;1088398;54;20031;-84
2022/04/26 05:34:12;;;;;;;15.77;13.93;;;;;;;10.90;86.55;99505.63;1088440;54;20034;-83
2022/04/26 05:35:17;;;;;;;15.32;13.55;;;;;;;10.93;86.28;99498.13;1094374;39;20621;-82
2022/04/26 05:36:21;;;;;;;16.63;14.15;;;;;;;10.92;86.54;99495.63;1088410;54;20078;-81
2022/04/26 05:37:22;;;;;;;15.95;13.48;;;;;;;10.87;86.15;99493.44;1092450;39;20654;-82
2022/04/26 05:38:27;;;;;;;15.38;13.77;;;;;;;10.86;85.94;99493.59;1088403;54;20082;-82
2022/04/26 05:39:28;;;;;;;14.82;12.68;;;;;;;10.90;85.81;99485.09;1090839;46;20041;-81
2022/04/26 05:40:33;;;;;;;14.25;12.73;;;;;;;10.88;85.65;99497.78;1088389;54;20031;-81
2022/04/26 05:41:37;;;;;;;14.38;12.70;;;;;;;10.83;85.45;99492.06;1087893;54;20062;-83
2022/04/26 05:42:41;;;;;;;13.77;12.20;;;;;;;10.85;85.09;99491.94;1088155;54;21088;-81
2022/04/26 05:43:43;;;;;;;12.00;10.80;;;;;;;10.89;84.95;99493.25;1088180;54;20030;-79
2022/04/26 05:44:47;;;;;;;10.65;9.45;;;;;;;10.87;84.35;99496.09;1090995;46;20041;-81
2022/04/26 05:45:51;;;;;;;10.95;9.75;;;;;;;10.87;83.96;99496.09;1088358;54;20019;-79
2022/04/26 05:46:53;;;;;;;10.82;8.98;;;;;;;10.87;83.88;99498.78;1088372;54;20018;-80
2022/04/26 05:47:57;;;;;;;9.75;8.48;;;;;;;10.91;83.85;99496.63;1088374;54;20035;-79
2022/04/26 05:48:59;;;;;;;10.73;8.85;;;;;;;10.90;83.57;99502.97;1088314;54;20023;-79
2022/04/26 05:50:03;;;;;;;10.75;8.70;;;;;;;10.91;83.43;99505.47;1088369;54;20040;-79
2022/04/26 05:51:10;;;;;;;9.30;7.90;;;;;;;10.93;83.13;99502.66;1090887;46;20039;-79
2022/04/26 05:52:12;;;;;;;10.00;8.13;;;;;;;10.97;82.93;99504.00;1088393;54;20025;-80
2022/04/26 05:53:16;;;;;;;9.20;8.20;;;;;;;10.93;82.82;99508.00;1088331;54;20075;-80
2022/04/26 05:54:17;;;;;;;8.05;7.10;;;;;;;10.99;82.55;99499.34;1088261;54;20025;-80
2022/04/26 05:55:22;;;;;;;7.75;6.80;;;;;;;11.02;82.17;99499.03;1088388;54;20037;-80
2022/04/26 05:56:23;;;;;;;8.15;7.07;;;;;;;11.00;82.02;99508.22;1088348;54;20018;-80
2022/04/26 05:57:28;;;;;;;7.82;6.82;;;;;;;11.02;81.92;99504.38;1088271;54;20046;-80
2022/04/26 05:58:29;;;;;;;7.80;6.53;;;;;;;11.06;81.62;99503.03;1087851;54;20034;-79
2022/04/26 05:59:34;;;;;;;7.43;6.63;;;;;;;11.06;81.63;99507.56;1088272;54;20034;-81
2022/04/26 06:00:42;;;;;;;7.20;6.13;;;;;;;11.01;81.29;99499.16;1088354;54;20022;-80
2022/04/26 06:01:43;;;;;;;8.05;6.55;;;;;;;10.97;81.73;99500.50;1088293;54;20026;-79
2022/04/26 06:02:49;;;;;;;9.40;6.90;;;;;;;10.98;80.95;99508.34;1091044;46;20832;-80
2022/04/26 06:03:50;;;;;;;8.43;7.25;;;;;;;10.96;81.39;99501.50;1090230;39;21085;-80
2022/04/26 06:04:54;;;;;;;8.38;7.07;;;;;;;10.95;81.33;99502.50;1088381;54;20072;-80
2022/04/26 06:05:57;;;;;;;8.73;7.07;;;;;;;10.86;81.34;99498.97;1088338;54;20030;-79
2022/04/26 06:07:04;;;;;;;8.68;7.78;;;;;;;10.91;81.54;99501.97;1088351;54;20042;-81
2022/04/26 06:08:07;;;;;;;8.55;7.32;;;;;;;10.90;81.49;99506.50;1088302;54;20034;-82
2022/04/26 06:09:13;;;;;;;9.00;7.00;;;;;;;10.97;81.20;99501.31;1088278;54;20038;-80
2022/04/26 06:10:15;;;;;;;7.95;6.47;;;;;;;10.95;81.64;99508.69;1088308;54;20099;-78
2022/04/26 06:11:19;;;;;;;8.27;6.20;;;;;;;10.99;81.38;99509.22;1088210;54;20019;-79
2022/04/26 06:12:23;;;;;;;7.28;5.93;;;;;;;10.98;81.43;99516.38;1088285;54;20034;-78
2022/04/26 06:13:29;;;;;;;7.05;5.95;;;;;;;10.99;80.90;99509.22;1088077;54;20042;-80
2022/04/26 06:14:31;;;;;;;7.15;5.57;;;;;;;11.00;80.80;99501.00;1088293;46;20031;-80
2022/04/26 06:15:35;;;;;;;7.65;6.25;;;;;;;11.02;80.86;99501.69;1087857;54;20026;-80
2022/04/26 06:16:37;;;;;;;8.13;6.15;;;;;;;11.02;80.63;99504.38;1087850;54;20019;-82
2022/04/26 06:17:41;;;;;;;6.80;5.57;;;;;;;11.06;80.47;99508.38;1087921;54;20034;-81
2022/04/26 06:18:46;;;;;;;7.95;6.07;;;;;;;11.09;80.50;99512.59;1087852;54;20034;-79
2022/04/26 06:19:48;;;;;;;6.70;5.43;;;;;;;11.15;80.26;99508.41;1087881;54;20030;-81
2022/04/26 06:20:52;;;;;;;7.45;6.28;;;;;;;11.11;80.49;99510.56;1087753;54;20042;-82
2022/04/26 06:21:53;;;;;;;7.38;6.13;;;;;;;11.13;80.59;99507.75;1087832;54;20086;-81
2022/04/26 06:23:00;;;;;;;8.45;6.53;;;;;;;11.16;80.43;99508.25;1087880;54;20042;-82
2022/04/26 06:24:05;;;;;;;8.25;6.38;;;;;;;11.20;80.53;99511.44;1088256;54;20034;-82
2022/04/26 06:25:12;;;;;;;7.13;6.28;;;;;;;11.16;80.32;99510.09;1088257;54;20038;-81
2022/04/26 06:26:17;;;;;;;8.75;7.28;;;;;;;11.07;80.38;99512.72;1088285;54;20039;-80
2022/04/26 06:27:18;;;;;;;8.15;7.03;;;;;;;10.99;80.09;99510.03;1088296;54;20031;-83
2022/04/26 06:28:22;;;;;;;8.40;7.40;;;;;;;10.92;79.99;99509.00;1088314;54;20031;-81
2022/04/26 06:29:24;;;;;;;8.07;6.93;;;;;;;10.86;80.21;99510.47;1088257;54;20030;-81
2022/04/26 06:30:29;;;;;;;8.15;6.47;;;;;;;10.93;80.10;99518.69;1088281;54;20090;-81
2022/04/26 06:31:33;;;;;;;7.20;5.97;;;;;;;11.00;80.04;99510.88;1088194;54;20033;-81
2022/04/26 06:32:35;;;;;;;7.90;5.95;;;;;;;11.04;79.82;99515.75;1088258;54;20038;-81
2022/04/26 06:33:39;;;;;;;6.50;5.70;;;;;;;11.02;79.68;99520.41;1089776;46;20676;-82
2022/04/26 06:34:40;;;;;;;8.63;6.95;;;;;;;10.89;80.25;99514.66;1088254;54;20030;-80
2022/04/26 06:35:45;;;;;;;9.23;7.35;;;;;;;10.80;80.51;99521.81;1088345;54;20045;-82
2022/04/26 06:36:46;;;;;;;10.00;8.57;;;;;;;10.66;81.12;99525.91;1088287;54;20177;-81
2022/04/26 06:37:50;;;;;;;11.18;9.55;;;;;;;10.54;81.63;99535.19;1088263;54;20026;-81
2022/04/26 06:38:55;;;;;;;10.80;8.95;;;;;;;10.41;81.54;99539.09;1087800;54;20041;-80
2022/04/26 06:39:59;;;;;;;9.57;8.15;;;;;;;10.35;82.18;99542.38;1088077;54;20034;-80
2022/04/26 06:41:00;;;;;;;10.18;9.07;;;;;;;10.24;82.50;99539.94;1088226;54;20908;-81
2022/04/26 06:42:05;;;;;;;11.75;9.15;;;;;;;10.25;82.34;99536.28;1088272;54;20034;-82
2022/04/26 06:43:06;;;;;;;10.15;8.13;;;;;;;10.37;82.30;99543.09;1088172;54;20745;-80
2022/04/26 06:44:11;;;;;;;11.82;8.43;;;;;;;10.37;82.29;99537.75;1088254;54;20034;-78
2022/04/26 06:45:12;;;;;;;13.07;8.90;;;;;;;10.49;81.99;99542.81;1088276;54;20031;-78
2022/04/26 06:46:16;;;;;;;9.70;7.70;;;;;;;10.64;81.42;99532.41;1088302;54;20053;-78
2022/04/26 06:47:18;;;;;;;8.80;7.35;;;;;;;10.76;81.13;99532.00;1088248;54;20734;-81
2022/04/26 06:48:22;;;;;;;9.15;7.38;;;;;;;10.86;80.83;99541.75;1088696;39;20697;-79
2022/04/26 06:49:23;;;;;;;10.27;8.68;;;;;;;10.89;80.49;99534.22;1088199;54;20033;-80
2022/04/26 06:50:28;;;;;;;11.98;8.68;;;;;;;10.73;81.24;99534.13;1090783;39;20584;-79
2022/04/26 06:51:30;;;;;;;10.38;7.85;;;;;;;10.71;80.95;99528.94;1088240;54;20038;-79
2022/04/26 06:52:34;;;;;;;9.25;7.25;;;;;;;10.76;80.89;99536.50;1088284;54;20094;-79
2022/04/26 06:53:36;;;;;;;8.95;7.50;;;;;;;10.81;80.91;99533.34;1088231;54;20031;-80
2022/04/26 06:54:43;;;;;;;9.82;8.35;;;;;;;10.64;81.36;99535.94;1088896;46;20054;-80
2022/04/26 06:55:44;;;;;;;8.98;7.57;;;;;;;10.54;81.26;99549.38;1087783;54;20030;-79
2022/04/26 06:56:49;;;;;;;9.23;7.60;;;;;;;10.70;80.60;99537.97;1088199;54;20030;-79
2022/04/26 06:57:53;;;;;;;8.73;6.85;;;;;;;10.76;80.34;99532.00;1088256;54;20058;-80
2022/04/26 06:58:55;;;;;;;8.18;6.63;;;;;;;10.61;80.65;99528.22;1088228;54;20029;-79
2022/04/26 06:59:59;;;;;;;9.50;6.80;;;;;;;10.58;80.77;99532.03;1088293;54;20035;-80
2022/04/26 07:01:01;;;;;;;8.82;6.70;;;;;;;10.69;80.30;99525.59;1089073;46;20034;-79
2022/04/26 07:02:05;;;;;;;8.00;5.70;;;;;;;10.84;80.02;99538.38;1088190;54;20046;-79
2022/04/26 07:03:07;;;;;;;7.30;5.60;;;;;;;10.80;80.03;99531.66;1088238;54;20686;-80
2022/04/26 07:04:11;;;;;;;7.25;5.72;;;;;;;10.59;80.63;99538.22;1088204;54;20035;-80
2022/04/26 07:05:15;;;;;;;8.20;6.05;;;;;;;10.61;81.02;99538.91;1088187;54;20038;-79
2022/04/26 07:06:19;;;;;;;7.90;6.07;;;;;;;10.70;80.66;99548.66;1088233;54;20050;-82
2022/04/26 07:07:22;;;;;;;7.20;5.50;;;;;;;10.63;80.52;99541.44;1088203;54;20094;-82
2022/04/26 07:08:26;;;;;;;7.53;5.28;;;;;;;10.61;80.79;99544.25;1088232;54;20150;-79
2022/04/26 07:09:27;;;;;;;6.80;5.13;;;;;;;10.57;80.87;99542.91;1091737;39;20631;-79
2022/04/26 07:10:34;;;;;;;6.15;4.85;;;;;;;10.66;80.46;99547.31;1088244;54;20049;-79
2022/04/26 07:11:36;;;;;;;5.80;4.68;;;;;;;10.75;80.09;99535.66;1087923;54;20061;-80
2022/04/26 07:12:40;;;;;;;5.78;4.35;;;;;;;10.81;80.10;99538.69;1087896;54;20054;-80
2022/04/26 07:13:42;;;;;;;6.15;4.55;;;;;;;10.80;79.71;99529.84;1088237;47;20022;-80
2022/04/26 07:14:46;;;;;;;5.97;4.13;;;;;;;10.83;79.74;99537.53;1088258;54;20018;-79
2022/04/26 07:15:48;;;;;;;4.75;3.33;;;;;;;10.89;79.52;99525.34;1088890;46;20034;-78
2022/04/26 07:16:52;;;;;;;6.13;3.63;;;;;;;10.93;79.37;99532.06;1088264;54;20034;-79
2022/04/26 07:17:54;;;;;;;4.95;3.38;;;;;;;10.96;78.93;99526.38;1088237;54;20025;-79
2022/04/26 07:18:58;;;;;;;4.70;3.10;;;;;;;11.00;78.67;99530.44;1088208;54;20050;-79
2022/04/26 07:20:00;;;;;;;5.13;3.47;;;;;;;11.03;78.27;99531.94;1088245;54;20091;-79
2022/04/26 07:21:04;;;;;;;4.60;2.90;;;;;;;10.95;78.16;99524.75;1089866;46;20037;-79
2022/04/26 07:22:08;;;;;;;4.90;3.28;;;;;;;10.91;78.04;99528.72;1088241;54;20023;-80
2022/04/26 07:23:12;;;;;;;4.80;3.20;;;;;;;10.90;78.16;99529.72;1088123;54;20756;-79
2022/04/26 07:24:17;;;;;;;5.03;3.40;;;;;;;10.96;78.08;99530.91;1088992;46;20014;-80
2022/04/26 07:25:21;;;;;;;4.30;3.00;;;;;;;10.82;78.56;99535.03;1088220;54;20037;-79
2022/04/26 07:26:28;;;;;;;5.07;3.47;;;;;;;10.69;78.39;99540.78;1088154;54;20030;-78
2022/04/26 07:27:30;;;;;;;4.90;3.38;;;;;;;10.62;78.81;99540.59;1088150;54;20714;-78
2022/04/26 07:28:35;;;;;;;4.90;3.25;;;;;;;10.65;78.56;99540.28;1088177;54;20030;-79
2022/04/26 07:29:41;;;;;;;5.03;3.67;;;;;;;10.63;78.78;99538.75;1088732;46;20019;-79
2022/04/26 07:30:45;;;;;;;4.78;3.17;;;;;;;10.65;78.59;99536.75;1088194;54;20019;-78
2022/04/26 07:31:49;;;;;;;4.03;2.58;;;;;;;10.65;78.21;99532.25;1088179;54;20023;-78
2022/04/26 07:34:22;;;;;;;4.50;2.72;;;;;;;10.81;77.86;99541.34;1087732;54;20030;-81
2022/04/26 07:35:26;;;;;;;5.07;2.88;;;;;;;10.84;77.71;99538.38;1088280;54;20030;-80
2022/04/26 07:36:28;;;;;;;4.55;3.00;;;;;;;10.87;77.97;99538.91;1088195;54;20038;-79
2022/04/26 07:37:32;;;;;;;4.05;2.80;;;;;;;10.95;77.58;99535.44;1088134;54;20038;-80
2022/04/26 07:38:35;;;;;;;4.63;2.70;;;;;;;10.98;77.19;99534.28;1088224;54;20041;-81
2022/04/26 07:39:39;;;;;;;4.45;2.85;;;;;;;11.02;77.25;99539.13;1088151;54;20048;-80
2022/04/26 07:40:41;;;;;;;4.85;3.10;;;;;;;11.04;76.89;99534.47;1088229;54;20029;-79
2022/04/26 07:48:43;;;;;;;5.03;3.33;;;;;;;11.19;76.98;99526.66;1088369;54;20021;-82
2022/04/26 08:38:49;;;;;;;9.32;7.68;;;;;;;11.91;76.40;99581.56;1087859;54;20745;-82
2022/04/26 08:39:56;;;;;;;8.55;6.85;;;;;;;11.97;76.03;99588.97;1098191;46;20039;-81
2022/04/26 08:41:03;;;;;;;7.72;6.13;;;;;;;12.09;75.72;99591.34;1088243;47;20030;-79
2022/04/26 08:42:06;;;;;;;8.57;7.07;;;;;;;12.13;75.45;99587.31;1087859;54;20034;-79
2022/04/26 08:43:10;;;;;;;8.50;7.40;;;;;;;12.02;75.69;99597.34;1087795;39;20874;-80
2022/04/26 08:44:12;;;;;;;11.25;9.75;;;;;;;11.77;76.09;99601.78;1087475;54;20031;-79
2022/04/26 08:45:17;;;;;;;10.38;9.18;;;;;;;11.86;75.66;99595.44;1087632;54;20026;-77
2022/04/26 08:46:19;;;;;;;11.20;9.65;;;;;;;11.82;75.34;99598.59;1087833;47;20047;-78
2022/04/26 08:51:17;;;;;;;14.48;11.30;;;;;;;11.98;74.64;99605.88;1088092;54;20087;-77
2022/04/26 08:52:20;;;;;;;13.55;11.55;;;;;;;12.12;74.47;99607.06;1088083;54;20037;-78
2022/04/26 08:53:26;;;;;;;13.52;10.65;;;;;;;12.24;74.08;99605.75;1087610;54;20042;-77
2022/04/26 08:54:30;;;;;;;12.63;11.25;;;;;;;12.06;74.17;99599.72;1087980;54;20019;-77
2022/04/26 08:55:35;;;;;;;15.45;11.15;;;;;;;11.99;74.29;99603.06;1088305;47;20014;-78
2022/04/26 08:56:45;;;;;;;13.88;11.07;;;;;;;11.96;73.60;99603.34;1087942;54;20038;-79
2022/04/26 08:57:46;;;;;;;15.90;11.50;;;;;;;12.00;73.45;99601.19;1088775;47;20030;-79
2022/04/26 08:58:51;;;;;;;15.60;10.93;;;;;;;12.13;73.20;99603.38;1087624;54;20030;-78
2022/04/26 08:59:53;;;;;;;13.32;9.68;;;;;;;12.27;73.13;99600.06;1087429;54;20034;-79
2022/04/26 09:01:11;;;;;;;14.18;11.93;;;;;;;11.94;72.27;99610.69;1087287;54;20086;-80
2022/04/26 09:02:19;;;;;;;13.02;10.52;;;;;;;12.06;72.83;99610.41;1087376;54;20035;-79
2022/04/26 09:03:23;;;;;;;19.52;13.13;;;;;;;12.15;73.12;99609.44;1087376;54;20030;-79
2022/04/26 09:04:27;;;;;;;24.50;14.63;;;;;;;12.06;72.79;99613.09;1087388;54;20042;-78
2022/04/26 09:05:29;;;;;;;26.48;14.18;;;;;;;12.09;72.74;99618.13;1087331;54;20061;-80
2022/04/26 09:06:43;;;;;;;25.58;11.98;;;;;;;12.33;72.41;99620.84;1088213;39;20723;-80
2022/04/26 09:07:48;;;;;;;19.42;12.23;;;;;;;12.41;72.15;99611.97;1087677;54;20042;-80
2022/04/26 09:08:53;;;;;;;18.95;11.80;;;;;;;12.44;71.93;99619.66;1087699;54;20046;-80
2022/04/26 09:10:04;;;;;;;19.33;12.68;;;;;;;12.24;71.80;99613.78;1088748;47;20058;-80
2022/04/26 09:11:24;;;;;;;18.38;12.63;;;;;;;12.15;71.94;99615.63;1087839;54;20047;-79
2022/04/26 09:12:26;;;;;;;15.70;11.80;;;;;;;12.07;72.36;99612.94;1087861;54;20042;-78
2022/04/26 09:13:30;;;;;;;16.70;11.80;;;;;;;12.02;72.01;99608.06;1087872;54;20109;-79
2022/04/26 09:14:36;;;;;;;18.27;12.80;;;;;;;12.15;72.21;99620.16;1087760;54;20030;-78
2022/04/26 09:16:29;;;;;;;12.82;11.18;;;;;;;12.15;71.82;99615.63;1087984;47;20026;-80
2022/04/26 09:17:48;;;;;;;13.02;10.45;;;;;;;12.25;72.05;99618.16;1094185;39;20301;-80
2022/04/26 09:19:24;;;;;;;15.70;12.13;;;;;;;12.19;71.43;99618.78;1088046;54;20042;-80
2022/04/26 09:20:33;;;;;;;11.68;9.77;;;;;;;12.64;71.37;99617.50;1088094;54;20019;-80
2022/04/26 09:22:00;;;;;;;12.18;10.40;;;;;;;12.70;69.56;99620.50;1093144;39;20788;-79
2022/04/26 09:23:02;;;;;;;12.60;9.75;;;;;;;13.17;69.55;99614.38;1087719;54;20034;-80
2022/04/26 09:24:09;;;;;;;10.35;8.85;;;;;;;13.61;68.50;99612.19;1087820;54;20038;-79
2022/04/26 09:25:11;;;;;;;10.73;9.13;;;;;;;13.78;67.91;99608.44;1088152;54;20038;-79
2022/04/26 09:26:17;;;;;;;10.75;8.95;;;;;;;13.93;67.34;99613.06;1088026;54;20026;-79
2022/04/26 09:27:19;;;;;;;9.48;7.93;;;;;;;14.08;66.85;99603.19;1088084;54;20038;-78
2022/04/26 09:28:25;;;;;;;9.25;7.78;;;;;;;14.21;66.45;99608.00;1088050;54;20026;-78
2022/04/26 09:29:29;;;;;;;10.38;7.55;;;;;;;14.37;66.10;99612.41;1087919;54;20038;-77
2022/04/26 09:30:31;;;;;;;10.05;8.80;;;;;;;14.13;65.37;99614.28;1088025;54;20034;-77
2022/04/26 09:31:37;;;;;;;10.10;8.52;;;;;;;14.47;65.13;99602.25;1087775;54;20031;-78
2022/04/26 09:32:47;;;;;;;10.88;9.00;;;;;;;14.27;64.22;99611.81;1087679;54;20034;-78
2022/04/26 09:33:52;;;;;;;10.10;8.65;;;;;;;14.31;65.15;99608.56;1087610;54;20058;-78
2022/04/26 09:34:54;;;;;;;12.07;9.27;;;;;;;14.41;64.94;99602.13;1092169;39;20936;-77
2022/04/26 09:36:02;;;;;;;10.63;9.02;;;;;;;14.50;64.36;99609.09;1087165;54;20054;-77
2022/04/26 09:37:11;;;;;;;10.07;8.38;;;;;;;14.67;64.28;99599.06;1087770;54;20046;-78
2022/04/26 09:38:23;;;;;;;9.13;7.90;;;;;;;14.93;63.25;99601.34;1087978;54;20031;-80
2022/04/26 09:39:27;;;;;;;9.48;8.10;;;;;;;14.84;63.96;99599.75;1087967;54;20035;-78